createdAt,value
2022-09-06T00:01:50.748Z,97.70
2022-09-06T00:04:18.159Z,97.90
2022-09-06T00:06:48.546Z,97.80
2022-09-06T00:09:20.180Z,97.90
2022-09-06T00:11:51.471Z,97.90
2022-09-06T00:14:19.815Z,97.90
2022-09-06T00:16:50.794Z,98.00
2022-09-06T00:19:18.032Z,98.00
2022-09-06T00:21:49.057Z,98.00
2022-09-06T00:24:21.246Z,98.00
2022-09-06T00:26:49.522Z,98.00
2022-09-06T00:29:22.006Z,98.10
2022-09-06T00:31:49.364Z,98.20
2022-09-06T00:34:17.879Z,98.20
2022-09-06T00:36:52.801Z,98.30
2022-09-06T00:39:25.471Z,98.30
2022-09-06T00:41:59.483Z,98.10
2022-09-06T00:44:38.721Z,98.10
2022-09-06T00:47:08.633Z,98.20
2022-09-06T00:49:44.965Z,98.10
2022-09-06T00:52:22.062Z,98.10
2022-09-06T00:54:56.601Z,98.30
2022-09-06T00:57:31.153Z,98.30
2022-09-06T01:00:07.466Z,98.40
2022-09-06T01:02:36.619Z,98.40
2022-09-06T01:05:13.266Z,98.40
2022-09-06T01:08:38.638Z,98.50
2022-09-06T01:11:51.124Z,98.60
2022-09-06T01:14:57.578Z,98.80
2022-09-06T01:17:45.898Z,98.70
2022-09-06T01:20:19.933Z,98.70
2022-09-06T01:23:05.862Z,98.80
2022-09-06T01:25:54.279Z,98.80
2022-09-06T01:28:33.889Z,98.80
2022-09-06T01:31:10.676Z,98.80
2022-09-06T01:34:08.688Z,98.80
2022-09-06T01:37:10.011Z,98.90
2022-09-06T01:39:48.059Z,98.80
2022-09-06T01:42:31.731Z,98.80
2022-09-06T01:45:12.424Z,98.90
2022-09-06T01:48:18.207Z,99.00
2022-09-06T01:50:54.537Z,98.90
2022-09-06T01:53:33.993Z,98.80
2022-09-06T01:56:36.651Z,99.00
2022-09-06T01:59:23.833Z,99.00
2022-09-06T02:02:00.886Z,98.90
2022-09-06T02:04:53.536Z,99.30
2022-09-06T02:07:31.420Z,99.10
2022-09-06T02:10:38.637Z,99.10
2022-09-06T02:13:13.279Z,99.10
2022-09-06T02:15:56.982Z,99.00
2022-09-06T02:18:47.618Z,99.10
2022-09-06T02:21:23.147Z,99.30
2022-09-06T02:23:58.331Z,99.30
2022-09-06T02:26:37.734Z,99.40
2022-09-06T02:29:14.252Z,99.40
2022-09-06T02:31:53.713Z,99.60
2022-09-06T02:34:23.776Z,99.50
2022-09-06T02:36:55.448Z,99.60
2022-09-06T02:39:29.856Z,99.80
2022-09-06T02:42:05.229Z,99.70
2022-09-06T02:44:36.688Z,99.40
2022-09-06T02:47:21.745Z,99.60
2022-09-06T02:50:00.810Z,99.60
2022-09-06T02:52:35.806Z,99.50
2022-09-06T02:55:07.192Z,99.60
2022-09-06T02:57:35.762Z,99.40
2022-09-06T03:00:10.741Z,99.30
2022-09-06T03:02:48.926Z,99.30
2022-09-06T03:05:19.649Z,99.60
2022-09-06T03:07:50.640Z,99.50
2022-09-06T03:10:22.594Z,99.20
2022-09-06T03:12:53.281Z,99.40
2022-09-06T03:15:21.518Z,99.50
2022-09-06T03:17:53.192Z,99.70
2022-09-06T03:20:36.374Z,99.70
2022-09-06T03:23:14.125Z,99.60
2022-09-06T03:25:54.177Z,99.70
2022-09-06T03:28:28.167Z,99.70
2022-09-06T03:30:59.661Z,99.70
2022-09-06T03:33:30.975Z,99.50
2022-09-06T03:36:10.366Z,99.40
2022-09-06T03:38:42.478Z,99.50
2022-09-06T03:41:15.228Z,99.40
2022-09-06T03:43:49.461Z,99.50
2022-09-06T03:46:23.907Z,99.60
2022-09-06T03:48:58.386Z,99.70
2022-09-06T03:51:32.429Z,99.60
2022-09-06T03:54:12.391Z,99.70
2022-09-06T03:56:43.926Z,99.60
2022-09-06T03:59:23.555Z,99.60
2022-09-06T04:01:59.477Z,99.50
2022-09-06T04:04:27.881Z,99.30
2022-09-06T04:06:56.174Z,99.30
2022-09-06T04:09:32.234Z,99.50
2022-09-06T04:12:06.389Z,99.70
2022-09-06T04:14:38.274Z,99.90
2022-09-06T04:17:12.730Z,99.90
2022-09-06T04:19:44.073Z,99.90
2022-09-06T04:22:11.938Z,99.90
2022-09-06T04:24:46.949Z,99.80
2022-09-06T04:27:23.083Z,99.90
2022-09-06T04:29:57.390Z,99.90
2022-09-06T04:32:29.844Z,99.90
2022-09-06T04:35:03.244Z,99.90
2022-09-06T04:37:38.198Z,99.90
2022-09-06T04:40:06.038Z,99.90
2022-09-06T04:42:33.736Z,99.90
2022-09-06T04:45:01.020Z,99.90
2022-09-06T04:47:28.388Z,99.90
2022-09-06T04:49:59.063Z,99.90
2022-09-06T04:52:30.090Z,99.90
2022-09-06T04:55:01.083Z,99.90
2022-09-06T04:57:28.425Z,99.90
2022-09-06T04:59:59.206Z,99.90
2022-09-06T05:02:31.500Z,99.90
2022-09-06T05:04:58.852Z,99.90
2022-09-06T05:07:30.505Z,99.80
2022-09-06T05:10:02.106Z,99.70
2022-09-06T05:12:29.275Z,99.60
2022-09-06T05:15:00.213Z,99.80
2022-09-06T05:17:27.452Z,99.80
2022-09-06T05:19:54.774Z,99.80
2022-09-06T05:22:22.021Z,99.80
2022-09-06T05:24:49.403Z,99.70
2022-09-06T05:27:19.903Z,99.90
2022-09-06T05:29:50.338Z,99.90
2022-09-06T05:32:18.643Z,99.90
2022-09-06T05:34:45.989Z,99.90
2022-09-06T05:37:13.652Z,99.90
2022-09-06T05:39:40.908Z,99.90
2022-09-06T05:42:08.295Z,99.90
2022-09-06T05:44:36.942Z,99.90
2022-09-06T05:47:04.881Z,99.90
2022-09-06T05:49:32.953Z,99.90
2022-09-06T05:52:00.326Z,99.90
2022-09-06T05:54:27.746Z,99.90
2022-09-06T05:56:55.055Z,99.90
2022-09-06T05:59:22.492Z,99.90
2022-09-06T06:01:53.284Z,99.90
2022-09-06T06:04:22.645Z,99.90
2022-09-06T06:06:50.159Z,99.90
2022-09-06T06:09:17.612Z,99.90
2022-09-06T06:11:49.102Z,99.90
2022-09-06T06:14:16.347Z,99.90
2022-09-06T06:16:43.844Z,99.90
2022-09-06T06:19:15.748Z,99.90
2022-09-06T06:21:43.873Z,99.90
2022-09-06T06:24:11.295Z,99.90
2022-09-06T06:26:38.726Z,99.90
2022-09-06T06:29:09.573Z,99.90
2022-09-06T06:31:39.289Z,99.90
2022-09-06T06:34:07.087Z,99.90
2022-09-06T06:36:36.463Z,99.90
2022-09-06T06:39:07.097Z,99.90
2022-09-06T06:41:34.648Z,99.90
2022-09-06T06:44:04.002Z,99.90
2022-09-06T06:46:36.834Z,99.90
2022-09-06T06:49:04.471Z,99.90
2022-09-06T06:51:34.250Z,99.90
2022-09-06T06:54:06.842Z,99.90
2022-09-06T06:56:37.340Z,99.90
2022-09-06T06:59:07.312Z,99.90
2022-09-06T07:01:38.207Z,99.90
2022-09-06T07:04:07.301Z,99.90
2022-09-06T07:12:29.017Z,99.90
2022-09-06T07:14:56.559Z,99.90
2022-09-06T07:17:23.963Z,99.90
2022-09-06T07:22:45.936Z,99.90
2022-09-06T07:25:20.512Z,99.90
2022-09-06T07:27:49.678Z,99.90
2022-09-06T07:30:19.510Z,99.90
2022-09-06T07:32:47.782Z,99.90
2022-09-06T07:35:20.825Z,99.90
2022-09-06T07:37:58.967Z,99.90
2022-09-06T07:40:30.975Z,99.90
2022-09-06T07:43:01.604Z,99.90
2022-09-06T07:45:28.910Z,99.90
2022-09-06T07:48:00.199Z,99.90
2022-09-06T07:53:23.025Z,99.90
2022-09-06T07:55:56.520Z,99.70
2022-09-06T07:58:23.885Z,99.50
2022-09-06T08:00:54.601Z,99.40
2022-09-06T08:03:21.961Z,99.20
2022-09-06T08:11:31.206Z,98.70
2022-09-06T08:14:05.198Z,98.70
2022-09-06T08:16:34.204Z,98.40
2022-09-06T08:19:04.896Z,98.30
2022-09-06T08:21:37.153Z,98.10
2022-09-06T08:24:09.990Z,97.80
2022-09-06T08:26:43.288Z,97.60
2022-09-06T08:29:12.329Z,97.50
2022-09-06T08:31:46.397Z,97.40
2022-09-06T08:34:14.704Z,97.30
2022-09-06T08:36:46.633Z,97.20
2022-09-06T08:39:17.877Z,97.00
2022-09-06T08:42:06.110Z,96.80
2022-09-06T08:44:57.196Z,96.40
2022-09-06T08:47:25.540Z,96.50
2022-09-06T08:50:03.525Z,96.40
2022-09-06T08:52:41.732Z,96.00
2022-09-06T08:55:38.636Z,95.90
2022-09-06T08:58:25.378Z,95.60
2022-09-06T09:01:03.514Z,95.40
2022-09-06T09:03:37.109Z,95.00
2022-09-06T09:06:09.694Z,94.80
2022-09-06T09:08:48.139Z,94.60
2022-09-06T09:11:25.624Z,94.20
2022-09-06T09:14:22.383Z,93.90
2022-09-06T09:16:54.607Z,93.70
2022-09-06T09:19:22.104Z,93.30
2022-09-06T09:21:49.530Z,93.20
2022-09-06T09:24:16.882Z,93.00
2022-09-06T09:27:11.544Z,92.80
2022-09-06T09:32:50.328Z,92.00
2022-09-06T09:35:34.049Z,92.00
2022-09-06T09:38:11.685Z,91.50
2022-09-06T09:40:53.195Z,91.40
2022-09-06T09:43:23.405Z,90.80
2022-09-06T09:46:25.826Z,90.60
2022-09-06T09:49:07.369Z,90.40
2022-09-06T09:51:35.965Z,90.40
2022-09-06T09:54:05.764Z,90.30
2022-09-06T09:56:50.378Z,90.10
2022-09-06T09:59:46.516Z,89.40
2022-09-06T10:02:22.353Z,88.30
2022-09-06T10:04:52.379Z,87.00
2022-09-06T10:07:24.600Z,86.60
2022-09-06T10:10:14.023Z,85.90
2022-09-06T10:12:43.697Z,84.60
2022-09-06T10:15:31.725Z,85.10
2022-09-06T10:18:00.162Z,84.90
2022-09-06T10:20:41.713Z,84.00
2022-09-06T10:23:17.638Z,83.80
2022-09-06T10:25:58.794Z,84.10
2022-09-06T10:28:32.937Z,84.00
2022-09-06T10:31:26.968Z,84.30
2022-09-06T10:34:06.342Z,83.40
2022-09-06T10:36:39.468Z,83.80
2022-09-06T10:39:28.078Z,82.50
2022-09-06T10:42:07.419Z,82.40
2022-09-06T10:45:17.367Z,81.80
2022-09-06T10:48:02.337Z,80.80
2022-09-06T10:51:06.473Z,79.90
2022-09-06T10:53:36.922Z,80.00
2022-09-06T10:56:19.077Z,80.50
2022-09-06T11:01:50.323Z,79.40
2022-09-06T11:10:38.050Z,76.40
2022-09-06T11:13:22.893Z,76.40
2022-09-06T11:16:00.838Z,74.60
2022-09-06T11:18:49.601Z,75.00
2022-09-06T11:21:38.201Z,74.80
2022-09-06T11:24:16.782Z,75.20
2022-09-06T11:27:04.897Z,74.60
2022-09-06T11:29:34.814Z,73.90
2022-09-06T11:32:27.851Z,73.90
2022-09-06T11:35:01.661Z,73.40
2022-09-06T11:37:36.482Z,72.60
2022-09-06T11:40:28.592Z,73.00
2022-09-06T11:43:05.951Z,73.00
2022-09-06T11:45:53.150Z,73.10
2022-09-06T11:48:35.312Z,72.60
2022-09-06T11:51:07.071Z,72.70
2022-09-06T11:53:49.438Z,73.10
2022-09-06T11:56:29.012Z,71.60
2022-09-06T11:59:08.220Z,71.60
2022-09-06T12:01:59.258Z,71.00
2022-09-06T12:05:01.450Z,70.60
2022-09-06T12:07:32.700Z,69.70
2022-09-06T12:10:27.031Z,69.50
2022-09-06T12:12:58.689Z,70.60
2022-09-06T12:15:45.457Z,71.10
2022-09-06T12:18:47.786Z,70.80
2022-09-06T12:21:46.251Z,70.70
2022-09-06T12:24:38.896Z,70.00
2022-09-06T12:27:20.157Z,69.40
2022-09-06T12:29:55.450Z,68.40
2022-09-06T12:32:44.010Z,68.60
2022-09-06T12:38:15.973Z,68.90
2022-09-06T12:40:59.336Z,68.50
2022-09-06T12:43:36.374Z,70.00
2022-09-06T12:46:08.736Z,68.60
2022-09-06T12:48:44.561Z,68.90
2022-09-06T12:51:20.808Z,68.50
2022-09-06T12:53:59.481Z,69.00
2022-09-06T12:56:33.113Z,68.90
2022-09-06T12:59:19.617Z,68.10
2022-09-06T13:01:51.894Z,67.60
2022-09-06T13:04:32.556Z,67.80
2022-09-06T13:07:03.370Z,66.90
2022-09-06T13:09:37.686Z,67.40
2022-09-06T13:12:09.176Z,67.70
2022-09-06T13:14:37.817Z,68.20
2022-09-06T13:17:06.157Z,68.60
2022-09-06T13:19:39.435Z,68.90
2022-09-06T13:22:11.132Z,69.50
2022-09-06T13:24:47.950Z,70.00
2022-09-06T13:27:36.766Z,70.30
2022-09-06T13:30:09.510Z,69.90
2022-09-06T13:32:45.826Z,70.40
2022-09-06T13:35:28.721Z,70.70
2022-09-06T13:38:21.945Z,70.50
2022-09-06T13:41:11.687Z,71.90
2022-09-06T13:43:47.039Z,72.50
2022-09-06T13:46:15.438Z,72.80
2022-09-06T13:48:48.397Z,72.60
2022-09-06T13:51:19.201Z,72.50
2022-09-06T13:53:49.566Z,71.90
2022-09-06T13:56:20.609Z,70.70
2022-09-06T13:58:49.834Z,70.80
2022-09-06T14:01:17.296Z,70.70
2022-09-06T14:03:49.231Z,70.70
2022-09-06T14:06:16.754Z,70.30
2022-09-06T14:09:06.394Z,70.20
2022-09-06T14:11:38.305Z,69.10
2022-09-06T14:14:06.493Z,68.30
2022-09-06T14:16:34.694Z,68.00
2022-09-06T14:19:02.600Z,68.10
2022-09-06T14:21:34.523Z,67.80
2022-09-06T14:24:04.585Z,68.10
2022-09-06T14:26:33.260Z,69.20
2022-09-06T14:29:04.421Z,69.80
2022-09-06T14:31:35.113Z,69.40
2022-09-06T14:34:02.829Z,69.40
2022-09-06T14:36:34.983Z,69.80
2022-09-06T14:39:05.849Z,69.70
2022-09-06T14:41:36.825Z,70.40
2022-09-06T14:44:04.401Z,70.00
2022-09-06T14:46:32.427Z,69.50
2022-09-06T14:49:12.953Z,69.40
2022-09-06T14:51:40.901Z,70.10
2022-09-06T14:54:11.654Z,70.10
2022-09-06T14:56:43.950Z,68.40
2022-09-06T14:59:15.092Z,67.40
2022-09-06T15:01:42.647Z,67.70
2022-09-06T15:04:13.626Z,67.10
2022-09-06T15:06:48.225Z,65.20
2022-09-06T15:09:21.531Z,64.10
2022-09-06T15:11:54.401Z,63.60
2022-09-06T15:14:32.211Z,62.90
2022-09-06T15:17:06.023Z,61.60
2022-09-06T15:19:36.519Z,61.90
2022-09-06T15:22:05.522Z,62.90
2022-09-06T15:24:35.224Z,63.40
2022-09-06T15:27:02.908Z,62.90
2022-09-06T15:29:33.942Z,63.10
2022-09-06T15:32:08.758Z,63.00
2022-09-06T15:34:45.396Z,63.60
2022-09-06T15:37:12.989Z,63.20
2022-09-06T15:39:42.847Z,63.00
2022-09-06T15:42:16.522Z,62.20
2022-09-06T15:44:54.441Z,61.30
2022-09-06T15:47:28.884Z,61.20
2022-09-06T15:49:59.495Z,61.40
2022-09-06T15:52:34.864Z,61.90
2022-09-06T15:55:25.423Z,62.70
2022-09-06T15:57:52.762Z,62.50
2022-09-06T16:00:22.227Z,62.90
2022-09-06T16:02:57.055Z,63.20
2022-09-06T16:08:21.967Z,63.70
2022-09-06T16:10:49.248Z,63.80
2022-09-06T16:13:23.593Z,64.20
2022-09-06T16:16:02.499Z,64.20
2022-09-06T16:18:34.860Z,64.50
2022-09-06T16:21:21.748Z,65.10
2022-09-06T16:23:57.527Z,65.60
2022-09-06T16:26:28.811Z,66.60
2022-09-06T16:28:59.952Z,67.80
2022-09-06T16:31:39.706Z,68.20
2022-09-06T16:34:14.421Z,68.80
2022-09-06T16:36:50.825Z,69.00
2022-09-06T16:39:23.358Z,69.40
2022-09-06T16:41:57.869Z,70.30
2022-09-06T16:44:32.527Z,70.40
2022-09-06T16:47:06.321Z,69.60
2022-09-06T16:49:40.883Z,69.40
2022-09-06T16:52:14.770Z,70.20
2022-09-06T16:54:51.461Z,70.90
2022-09-06T16:57:25.302Z,71.40
2022-09-06T16:59:52.983Z,71.00
2022-09-06T17:02:24.504Z,70.80
2022-09-06T17:04:55.781Z,71.20
2022-09-06T17:07:26.597Z,71.70
2022-09-06T17:10:03.784Z,72.20
2022-09-06T17:12:43.054Z,72.50
2022-09-06T17:15:12.647Z,72.60
2022-09-06T17:17:46.229Z,73.10
2022-09-06T17:20:20.887Z,73.90
2022-09-06T17:22:55.335Z,74.20
2022-09-06T17:25:27.572Z,74.70
2022-09-06T17:27:56.276Z,75.10
2022-09-06T17:30:27.439Z,75.60
2022-09-06T17:32:56.355Z,75.90
2022-09-06T17:35:27.881Z,76.30
2022-09-06T17:38:04.202Z,77.10
2022-09-06T17:40:40.582Z,77.60
2022-09-06T17:43:11.210Z,78.10
2022-09-06T17:45:45.805Z,78.60
2022-09-06T17:48:19.969Z,79.50
2022-09-06T17:50:56.633Z,79.80
2022-09-06T17:53:23.976Z,80.40
2022-09-06T17:55:58.129Z,80.80
2022-09-06T17:58:28.631Z,81.50
2022-09-06T18:00:56.229Z,81.80
2022-09-06T18:03:26.802Z,81.90
2022-09-06T18:05:54.733Z,82.30
2022-09-06T18:08:25.278Z,82.70
2022-09-06T18:11:06.330Z,82.90
2022-09-06T18:13:37.219Z,83.30
2022-09-06T18:16:08.536Z,83.60
2022-09-06T18:18:39.818Z,84.00
2022-09-06T18:21:11.813Z,84.40
2022-09-06T18:23:39.162Z,84.70
2022-09-06T18:26:08.904Z,85.10
2022-09-06T18:28:46.260Z,85.50
2022-09-06T18:31:15.850Z,86.60
2022-09-06T18:33:46.729Z,86.30
2022-09-06T18:36:18.609Z,86.50
2022-09-06T18:38:46.361Z,86.70
2022-09-06T18:41:35.140Z,86.90
2022-09-06T18:44:04.752Z,87.40
2022-09-06T18:46:36.439Z,87.60
2022-09-06T18:49:07.495Z,88.00
2022-09-06T18:51:38.234Z,88.20
2022-09-06T18:54:07.063Z,88.50
2022-09-06T18:56:34.453Z,88.90
2022-09-06T18:59:05.794Z,89.20
2022-09-06T19:01:37.617Z,89.70
2022-09-06T19:04:11.103Z,89.70
2022-09-06T19:06:43.212Z,90.10
2022-09-06T19:09:16.995Z,90.20
2022-09-06T19:11:47.282Z,90.30
2022-09-06T19:14:14.783Z,90.40
2022-09-06T19:16:51.523Z,90.50
2022-09-06T19:19:23.419Z,90.90
2022-09-06T19:21:51.471Z,90.80
2022-09-06T19:24:25.782Z,90.80
2022-09-06T19:26:56.936Z,90.90
2022-09-06T19:29:27.736Z,91.10
2022-09-06T19:31:55.365Z,91.10
2022-09-06T19:34:24.358Z,91.30
2022-09-06T19:36:58.157Z,91.40
2022-09-06T19:39:36.244Z,91.50
2022-09-06T19:42:08.428Z,91.70
2022-09-06T19:44:36.267Z,91.70
2022-09-06T19:50:48.521Z,92.10
2022-09-06T19:53:24.068Z,91.80
2022-09-06T19:55:52.553Z,91.90
2022-09-06T19:58:26.378Z,92.10
2022-09-06T20:00:59.018Z,92.20
2022-09-06T20:03:32.272Z,92.40
2022-09-06T20:06:05.023Z,92.50
2022-09-06T20:08:32.677Z,92.50
2022-09-06T20:11:10.297Z,92.60
2022-09-06T20:13:39.603Z,92.70
2022-09-06T20:16:09.163Z,92.70
2022-09-06T20:18:47.918Z,92.80
2022-09-06T20:21:18.789Z,92.90
2022-09-06T20:23:54.734Z,92.90
2022-09-06T20:26:28.960Z,93.00
2022-09-06T20:29:01.883Z,93.00
2022-09-06T20:31:35.988Z,93.10
2022-09-06T20:34:05.559Z,93.20
2022-09-06T20:36:37.102Z,93.40
2022-09-06T20:39:11.706Z,93.40
2022-09-06T20:41:47.073Z,93.40
2022-09-06T20:44:18.154Z,93.60
2022-09-06T20:46:52.476Z,93.40
2022-09-06T20:49:25.710Z,93.80
2022-09-06T20:51:55.041Z,93.60
2022-09-06T20:54:27.278Z,93.80
2022-09-06T20:56:59.404Z,94.00
2022-09-06T20:59:26.996Z,94.00
2022-09-06T21:01:58.678Z,94.10
2022-09-06T21:04:31.213Z,94.60
2022-09-06T21:07:05.663Z,94.40
2022-09-06T21:09:37.958Z,94.40
2022-09-06T21:12:09.695Z,94.40
2022-09-06T21:14:37.939Z,94.50
2022-09-06T21:17:06.952Z,94.50
2022-09-06T21:19:40.624Z,94.50
2022-09-06T21:22:11.217Z,94.50
2022-09-06T21:24:44.421Z,94.60
2022-09-06T21:27:12.663Z,94.70
2022-09-06T21:29:48.119Z,94.80
2022-09-06T21:32:21.926Z,95.00
2022-09-06T21:35:00.667Z,95.00
2022-09-06T21:37:27.975Z,95.10
2022-09-06T21:39:55.672Z,95.10
2022-09-06T21:42:32.137Z,95.20
2022-09-06T21:45:03.101Z,95.30
2022-09-06T21:47:39.243Z,95.40
2022-09-06T21:50:10.580Z,95.30
2022-09-06T21:52:44.926Z,95.40
2022-09-06T21:55:16.745Z,95.30
2022-09-06T21:57:44.066Z,95.40
2022-09-06T22:00:12.290Z,95.40
2022-09-06T22:02:39.612Z,95.60
2022-09-06T22:05:07.142Z,95.60
2022-09-06T22:07:36.687Z,95.60
2022-09-06T22:10:08.422Z,95.70
2022-09-06T22:12:35.862Z,95.70
2022-09-06T22:15:03.777Z,95.50
2022-09-06T22:17:31.189Z,95.60
2022-09-06T22:19:58.593Z,95.80
2022-09-06T22:22:28.205Z,95.70
2022-09-06T22:24:55.421Z,95.90
2022-09-06T22:27:23.645Z,96.10
2022-09-06T22:29:54.974Z,96.30
2022-09-06T22:32:24.430Z,96.20
2022-09-06T22:34:55.176Z,96.10
2022-09-06T22:37:22.402Z,96.10
2022-09-06T22:39:53.498Z,96.20
2022-09-06T22:42:24.306Z,96.20
2022-09-06T22:44:54.886Z,96.30
2022-09-06T22:47:22.478Z,96.40
2022-09-06T22:49:49.689Z,96.50
2022-09-06T22:52:24.389Z,96.50
2022-09-06T22:54:54.959Z,96.70
2022-09-06T22:57:27.146Z,96.60
2022-09-06T22:59:57.610Z,96.40
2022-09-06T23:02:25.015Z,96.60
2022-09-06T23:04:59.640Z,96.70
2022-09-06T23:07:27.923Z,96.70
2022-09-06T23:09:55.143Z,96.90
2022-09-06T23:12:23.419Z,97.00
2022-09-06T23:14:51.133Z,97.10
2022-09-06T23:17:18.398Z,97.10
2022-09-06T23:19:45.932Z,97.10
2022-09-06T23:22:13.241Z,97.10
2022-09-06T23:24:40.738Z,97.10
2022-09-06T23:27:08.504Z,97.10
2022-09-06T23:29:35.898Z,97.30
2022-09-06T23:32:03.411Z,97.50
2022-09-06T23:34:31.379Z,97.60
2022-09-06T23:37:00.220Z,97.60
2022-09-06T23:39:28.510Z,97.60
2022-09-06T23:41:56.816Z,97.60
2022-09-06T23:44:24.685Z,97.50
2022-09-06T23:46:52.136Z,97.50
2022-09-06T23:49:19.613Z,97.80
2022-09-06T23:51:47.009Z,97.80
2022-09-06T23:54:14.293Z,97.80
2022-09-06T23:56:41.934Z,97.80
2022-09-06T23:59:09.324Z,97.80
